createdAt,value
2019-03-21T00:00:40.311Z,47.90
2019-03-21T00:03:12.770Z,47.90
2019-03-21T00:05:43.805Z,47.70
2019-03-21T00:08:14.240Z,47.90
2019-03-21T00:11:23.357Z,47.60
2019-03-21T00:14:06.424Z,47.40
2019-03-21T00:16:28.865Z,47.80
2019-03-21T00:18:59.586Z,48.10
2019-03-21T00:21:30.337Z,48.80
2019-03-21T00:24:01.369Z,48.10
2019-03-21T00:26:32.288Z,48.60
2019-03-21T00:29:03.025Z,48.60
2019-03-21T00:31:34.126Z,48.70
2019-03-21T00:34:04.977Z,48.70
2019-03-21T00:36:36.324Z,48.70
2019-03-21T00:39:09.337Z,48.60
2019-03-21T00:41:40.404Z,48.40
2019-03-21T00:44:18.187Z,48.30
2019-03-21T00:46:44.809Z,48.30
2019-03-21T00:49:15.510Z,48.40
2019-03-21T00:51:48.202Z,48.30
2019-03-21T00:54:19.838Z,48.30
2019-03-21T00:56:50.481Z,48.20
2019-03-21T00:59:21.518Z,47.80
2019-03-21T01:01:52.477Z,47.80
2019-03-21T01:04:26.490Z,47.60
2019-03-21T01:06:57.169Z,47.60
2019-03-21T01:09:28.447Z,47.60
2019-03-21T01:11:59.800Z,47.60
2019-03-21T01:14:30.526Z,47.50
2019-03-21T01:17:02.485Z,47.80
2019-03-21T01:19:33.527Z,47.70
2019-03-21T01:22:04.283Z,47.60
2019-03-21T01:24:34.913Z,47.30
2019-03-21T01:27:05.912Z,47.40
2019-03-21T01:29:36.580Z,47.40
2019-03-21T01:32:07.507Z,47.20
2019-03-21T01:34:38.146Z,47.30
2019-03-21T01:37:09.091Z,47.10
2019-03-21T01:39:40.218Z,47.20
2019-03-21T01:42:10.859Z,47.20
2019-03-21T01:44:41.535Z,47.30
2019-03-21T01:47:12.542Z,48.20
2019-03-21T01:49:43.180Z,47.60
2019-03-21T01:52:14.279Z,47.30
2019-03-21T01:54:45.951Z,47.30
2019-03-21T01:57:16.594Z,47.30
2019-03-21T01:59:48.538Z,47.30
2019-03-21T02:02:20.247Z,47.50
2019-03-21T02:04:49.633Z,47.50
2019-03-21T02:07:20.587Z,47.40
2019-03-21T02:09:51.966Z,47.30
2019-03-21T02:12:22.966Z,47.20
2019-03-21T02:14:53.630Z,47.30
2019-03-21T02:17:24.922Z,47.50
2019-03-21T02:19:56.099Z,47.50
2019-03-21T02:22:27.142Z,47.30
2019-03-21T02:24:57.805Z,47.30
2019-03-21T02:27:28.796Z,47.50
2019-03-21T02:29:59.750Z,47.60
2019-03-21T02:32:30.805Z,47.90
2019-03-21T02:35:01.568Z,47.60
2019-03-21T02:37:32.547Z,47.30
2019-03-21T02:40:03.564Z,47.70
2019-03-21T02:42:34.347Z,47.60
2019-03-21T02:45:08.813Z,47.50
2019-03-21T02:47:38.188Z,47.60
2019-03-21T02:50:13.109Z,47.60
2019-03-21T02:52:44.616Z,47.50
2019-03-21T02:55:15.315Z,47.40
2019-03-21T02:57:46.285Z,47.60
2019-03-21T03:00:19.339Z,47.40
2019-03-21T03:02:52.482Z,47.90
2019-03-21T03:05:24.983Z,47.80
2019-03-21T03:07:55.997Z,48.00
2019-03-21T03:10:32.246Z,47.80
2019-03-21T03:13:03.354Z,47.60
2019-03-21T03:15:34.510Z,47.90
2019-03-21T03:18:06.982Z,47.60
2019-03-21T03:20:37.683Z,47.60
2019-03-21T03:23:08.362Z,47.60
2019-03-21T03:25:39.062Z,47.90
2019-03-21T03:28:12.798Z,47.90
2019-03-21T03:30:43.450Z,48.20
2019-03-21T03:33:14.180Z,48.00
2019-03-21T03:35:45.230Z,47.90
2019-03-21T03:38:15.867Z,47.70
2019-03-21T03:40:48.853Z,47.70
2019-03-21T03:43:19.604Z,48.00
2019-03-21T03:45:50.506Z,47.90
2019-03-21T03:48:21.199Z,47.70
2019-03-21T03:50:52.271Z,47.70
2019-03-21T03:53:22.958Z,47.60
2019-03-21T03:55:54.452Z,47.90
2019-03-21T03:58:25.345Z,48.30
2019-03-21T04:00:56.260Z,48.40
2019-03-21T04:03:27.209Z,48.50
2019-03-21T04:05:57.932Z,48.40
2019-03-21T04:08:28.649Z,48.00
2019-03-21T04:10:59.512Z,48.00
2019-03-21T04:13:30.785Z,48.00
2019-03-21T04:16:01.904Z,48.50
2019-03-21T04:18:32.451Z,48.20
2019-03-21T04:21:03.214Z,48.10
2019-03-21T04:23:34.063Z,47.90
2019-03-21T04:26:14.778Z,48.20
2019-03-21T04:28:45.795Z,48.40
2019-03-21T04:31:16.775Z,48.20
2019-03-21T04:33:47.396Z,48.30
2019-03-21T04:36:18.366Z,47.90
2019-03-21T04:38:49.035Z,47.90
2019-03-21T04:41:19.886Z,47.80
2019-03-21T04:43:50.577Z,47.80
2019-03-21T04:46:21.246Z,47.70
2019-03-21T04:48:52.203Z,47.50
2019-03-21T04:51:23.116Z,47.60
2019-03-21T04:53:54.026Z,47.70
2019-03-21T04:56:24.705Z,48.20
2019-03-21T04:58:55.419Z,47.80
2019-03-21T05:01:26.359Z,47.60
2019-03-21T05:03:57.067Z,47.60
2019-03-21T05:06:28.316Z,47.60
2019-03-21T05:08:59.317Z,47.70
2019-03-21T05:11:30.213Z,47.90
2019-03-21T05:14:00.815Z,48.30
2019-03-21T05:16:31.759Z,48.20
2019-03-21T05:19:03.319Z,48.20
2019-03-21T05:21:34.029Z,48.70
2019-03-21T05:24:04.714Z,48.50
2019-03-21T05:26:35.934Z,48.30
2019-03-21T05:29:06.586Z,48.30
2019-03-21T05:31:37.215Z,48.20
2019-03-21T05:34:08.691Z,47.90
2019-03-21T05:36:39.637Z,48.00
2019-03-21T05:39:11.313Z,47.90
2019-03-21T05:41:41.051Z,47.80
2019-03-21T05:44:20.110Z,47.80
2019-03-21T05:46:50.727Z,47.70
2019-03-21T05:49:21.663Z,47.90
2019-03-21T05:51:52.268Z,48.10
2019-03-21T05:54:22.897Z,48.20
2019-03-21T05:56:53.894Z,49.00
2019-03-21T05:59:24.455Z,48.10
2019-03-21T06:01:55.405Z,47.80
2019-03-21T06:04:26.058Z,48.00
2019-03-21T06:07:16.641Z,48.70
2019-03-21T06:09:47.822Z,48.10
2019-03-21T06:12:19.075Z,48.20
2019-03-21T06:14:54.139Z,48.70
2019-03-21T06:17:25.491Z,48.90
2019-03-21T06:20:21.615Z,49.30
2019-03-21T06:23:33.056Z,49.70
2019-03-21T06:26:30.153Z,49.40
2019-03-21T06:29:01.215Z,49.40
2019-03-21T06:31:32.611Z,50.00
2019-03-21T06:34:03.295Z,49.10
2019-03-21T06:36:34.255Z,49.20
2019-03-21T06:39:07.663Z,49.70
2019-03-21T06:41:38.907Z,49.90
2019-03-21T06:44:10.203Z,50.60
2019-03-21T06:46:49.313Z,50.10
2019-03-21T06:49:14.031Z,49.50
2019-03-21T06:51:44.731Z,49.80
2019-03-21T06:54:15.595Z,49.60
2019-03-21T06:56:46.432Z,49.80
2019-03-21T06:59:17.374Z,49.50
2019-03-21T07:01:48.816Z,50.30
2019-03-21T07:04:19.349Z,49.10
2019-03-21T07:06:49.992Z,49.30
2019-03-21T07:09:20.966Z,49.50
2019-03-21T07:11:51.663Z,48.70
2019-03-21T07:14:23.290Z,49.20
2019-03-21T07:17:00.468Z,48.80
2019-03-21T07:19:26.158Z,49.60
2019-03-21T07:21:56.867Z,48.80
2019-03-21T07:24:28.960Z,48.70
2019-03-21T07:26:59.634Z,48.80
2019-03-21T07:29:30.503Z,49.00
2019-03-21T07:32:01.623Z,48.20
2019-03-21T07:34:32.356Z,48.20
2019-03-21T07:37:03.079Z,48.80
2019-03-21T07:39:33.709Z,49.60
2019-03-21T07:42:05.170Z,49.30
2019-03-21T07:44:36.520Z,48.20
2019-03-21T07:47:12.796Z,48.40
2019-03-21T07:49:39.620Z,48.70
2019-03-21T07:52:10.332Z,48.50
2019-03-21T07:54:40.981Z,47.90
2019-03-21T07:57:11.623Z,47.90
2019-03-21T07:59:42.718Z,47.40
2019-03-21T08:02:13.990Z,48.00
2019-03-21T08:04:44.646Z,47.70
2019-03-21T08:07:15.560Z,47.70
2019-03-21T08:09:47.066Z,47.10
2019-03-21T08:12:18.303Z,47.50
2019-03-21T08:14:49.322Z,47.40
2019-03-21T08:17:22.958Z,47.50
2019-03-21T08:19:53.730Z,47.60
2019-03-21T08:22:24.496Z,47.60
2019-03-21T08:24:55.242Z,46.90
2019-03-21T08:27:25.869Z,46.60
2019-03-21T08:29:57.438Z,47.70
2019-03-21T08:32:28.574Z,47.60
2019-03-21T08:34:59.296Z,47.80
2019-03-21T08:37:31.028Z,46.70
2019-03-21T08:40:02.395Z,46.30
2019-03-21T08:42:33.845Z,46.90
2019-03-21T08:45:04.969Z,46.90
2019-03-21T08:47:37.080Z,46.40
2019-03-21T08:50:08.178Z,46.60
2019-03-21T08:52:39.143Z,46.40
2019-03-21T08:55:10.377Z,46.10
2019-03-21T08:57:41.591Z,47.40
2019-03-21T09:00:12.271Z,46.50
2019-03-21T09:02:43.474Z,47.10
2019-03-21T09:05:14.149Z,46.10
2019-03-21T09:07:45.173Z,47.10
2019-03-21T09:10:16.129Z,47.30
2019-03-21T09:12:47.328Z,46.70
2019-03-21T09:15:18.698Z,46.10
2019-03-21T09:17:49.553Z,46.20
2019-03-21T09:20:20.517Z,45.80
2019-03-21T09:22:51.365Z,45.30
2019-03-21T09:25:22.240Z,46.40
2019-03-21T09:28:02.220Z,45.90
2019-03-21T09:30:27.236Z,45.90
2019-03-21T09:32:58.361Z,45.50
2019-03-21T09:35:29.359Z,45.00
2019-03-21T09:38:00.747Z,45.00
2019-03-21T09:40:32.039Z,45.40
2019-03-21T09:43:03.431Z,45.30
2019-03-21T09:45:34.752Z,45.20
2019-03-21T09:48:05.425Z,45.00
2019-03-21T09:50:36.729Z,45.90
2019-03-21T09:53:07.404Z,46.00
2019-03-21T09:55:38.458Z,45.40
2019-03-21T09:58:10.214Z,45.10
2019-03-21T10:00:41.195Z,45.50
2019-03-21T10:03:12.293Z,45.20
2019-03-21T10:05:42.929Z,45.00
2019-03-21T10:08:13.572Z,44.80
2019-03-21T10:10:44.650Z,44.60
2019-03-21T10:13:15.281Z,44.40
2019-03-21T10:15:46.111Z,43.90
2019-03-21T10:18:17.106Z,43.80
2019-03-21T10:20:48.106Z,44.00
2019-03-21T10:23:19.225Z,44.40
2019-03-21T10:25:49.904Z,44.50
2019-03-21T10:28:21.096Z,44.50
2019-03-21T10:30:51.986Z,44.30
2019-03-21T10:33:22.952Z,45.00
2019-03-21T10:35:53.853Z,44.70
2019-03-21T10:38:24.793Z,44.50
2019-03-21T10:40:55.779Z,44.20
2019-03-21T10:43:26.518Z,44.30
2019-03-21T10:45:57.698Z,43.80
2019-03-21T10:48:28.569Z,43.80
2019-03-21T10:50:59.255Z,44.40
2019-03-21T10:53:30.630Z,44.30
2019-03-21T10:56:01.694Z,44.50
2019-03-21T10:58:32.379Z,44.20
2019-03-21T11:01:03.379Z,44.00
2019-03-21T11:03:34.447Z,44.00
2019-03-21T11:06:05.528Z,44.30
2019-03-21T11:08:36.560Z,44.20
2019-03-21T11:11:08.131Z,43.90
2019-03-21T11:13:38.702Z,44.10
2019-03-21T11:16:09.315Z,43.80
2019-03-21T11:18:40.005Z,44.40
2019-03-21T11:21:11.540Z,44.00
2019-03-21T11:23:42.318Z,43.50
2019-03-21T11:26:14.253Z,44.40
2019-03-21T11:28:45.574Z,44.10
2019-03-21T11:31:16.600Z,43.50
2019-03-21T11:33:47.236Z,43.70
2019-03-21T11:36:18.274Z,44.30
2019-03-21T11:38:48.945Z,44.00
2019-03-21T11:41:19.940Z,43.40
2019-03-21T11:43:51.444Z,43.80
2019-03-21T11:46:22.438Z,43.90
2019-03-21T11:48:54.818Z,43.90
2019-03-21T11:51:26.109Z,43.70
2019-03-21T11:53:57.210Z,43.90
2019-03-21T11:56:28.499Z,43.80
2019-03-21T11:58:59.533Z,45.10
2019-03-21T12:01:30.124Z,44.00
2019-03-21T12:04:00.866Z,43.70
2019-03-21T12:06:32.520Z,43.50
2019-03-21T12:09:03.913Z,43.40
2019-03-21T12:11:34.772Z,43.70
2019-03-21T12:14:05.847Z,43.80
2019-03-21T12:16:36.471Z,44.00
2019-03-21T12:19:08.398Z,43.80
2019-03-21T12:21:39.363Z,43.50
2019-03-21T12:24:10.302Z,43.60
2019-03-21T12:26:40.882Z,43.90
2019-03-21T12:29:11.962Z,44.10
2019-03-21T12:31:43.105Z,45.20
2019-03-21T12:34:14.618Z,44.40
2019-03-21T12:36:45.293Z,44.20
2019-03-21T12:39:15.958Z,44.00
2019-03-21T12:41:46.950Z,44.10
2019-03-21T12:44:18.028Z,44.00
2019-03-21T12:46:49.077Z,44.00
2019-03-21T12:49:19.689Z,44.30
2019-03-21T12:51:50.691Z,44.40
2019-03-21T12:54:21.716Z,44.40
2019-03-21T12:56:53.175Z,44.50
2019-03-21T12:59:24.356Z,44.40
2019-03-21T13:01:56.010Z,44.30
2019-03-21T13:04:26.990Z,44.50
2019-03-21T13:06:57.622Z,44.60
2019-03-21T13:09:29.249Z,44.80
2019-03-21T13:12:00.339Z,44.90
2019-03-21T13:14:31.638Z,44.70
2019-03-21T13:17:03.227Z,44.60
2019-03-21T13:19:34.329Z,44.70
2019-03-21T13:22:05.332Z,44.70
2019-03-21T13:24:36.730Z,45.00
2019-03-21T13:27:07.606Z,45.20
2019-03-21T13:29:39.033Z,45.30
2019-03-21T13:32:10.015Z,45.30
2019-03-21T13:34:42.150Z,45.80
2019-03-21T13:37:13.440Z,44.70
2019-03-21T13:39:44.222Z,44.70
2019-03-21T13:42:15.239Z,44.80
2019-03-21T13:44:46.778Z,44.50
2019-03-21T13:47:17.434Z,44.30
2019-03-21T13:49:48.436Z,44.90
2019-03-21T13:52:19.063Z,45.30
2019-03-21T13:54:49.841Z,44.90
2019-03-21T13:57:20.725Z,44.70
2019-03-21T13:59:51.599Z,45.10
2019-03-21T14:02:23.248Z,45.00
2019-03-21T14:04:54.529Z,45.20
2019-03-21T14:07:25.507Z,45.40
2019-03-21T14:09:56.560Z,45.40
2019-03-21T14:12:27.872Z,45.40
2019-03-21T14:14:58.949Z,45.50
2019-03-21T14:17:30.113Z,45.80
2019-03-21T14:20:00.867Z,45.50
2019-03-21T14:22:31.567Z,45.30
2019-03-21T14:25:02.213Z,45.20
2019-03-21T14:27:32.924Z,44.80
2019-03-21T14:30:03.993Z,44.30
2019-03-21T14:32:35.444Z,44.70
2019-03-21T14:35:06.840Z,45.00
2019-03-21T14:37:39.030Z,45.10
2019-03-21T14:40:11.927Z,45.20
2019-03-21T14:42:43.435Z,45.90
2019-03-21T14:45:15.084Z,45.40
2019-03-21T14:47:47.136Z,45.10
2019-03-21T14:50:18.180Z,45.40
2019-03-21T14:52:49.197Z,45.50
2019-03-21T14:55:19.939Z,45.50
2019-03-21T14:57:50.981Z,45.60
2019-03-21T15:00:21.541Z,45.60
2019-03-21T15:02:53.576Z,45.70
2019-03-21T15:05:24.208Z,45.80
2019-03-21T15:07:55.183Z,46.00
2019-03-21T15:10:26.201Z,46.00
2019-03-21T15:12:57.313Z,45.70
2019-03-21T15:15:28.182Z,45.90
2019-03-21T15:17:58.959Z,46.00
2019-03-21T15:20:30.618Z,45.70
2019-03-21T15:23:01.364Z,45.60
2019-03-21T15:25:33.016Z,45.70
2019-03-21T15:28:03.769Z,45.80
2019-03-21T15:30:34.334Z,45.90
2019-03-21T15:33:05.305Z,46.20
2019-03-21T15:35:36.336Z,46.20
2019-03-21T15:38:07.587Z,46.20
2019-03-21T15:40:38.505Z,46.20
2019-03-21T15:43:09.190Z,46.10
2019-03-21T15:45:39.818Z,46.30
2019-03-21T15:48:10.521Z,46.40
2019-03-21T15:50:41.243Z,46.40
2019-03-21T15:53:11.931Z,46.10
2019-03-21T15:55:42.592Z,46.20
2019-03-21T15:58:13.614Z,46.40
2019-03-21T16:00:44.462Z,45.90
2019-03-21T16:03:15.862Z,45.80
2019-03-21T16:05:46.470Z,45.90
2019-03-21T16:08:17.655Z,45.80
2019-03-21T16:10:49.226Z,46.10
2019-03-21T16:13:20.827Z,45.80
2019-03-21T16:15:52.374Z,45.70
2019-03-21T16:18:23.977Z,45.60
2019-03-21T16:20:55.652Z,45.80
2019-03-21T16:23:26.258Z,45.60
2019-03-21T16:25:57.435Z,45.90
2019-03-21T16:28:28.160Z,45.30
2019-03-21T16:30:59.133Z,45.10
2019-03-21T16:33:30.605Z,45.00
2019-03-21T16:36:01.551Z,45.10
2019-03-21T16:38:32.542Z,45.30
2019-03-21T16:41:04.290Z,45.00
2019-03-21T16:43:35.625Z,44.70
2019-03-21T16:46:06.296Z,44.80
2019-03-21T16:48:37.338Z,45.00
2019-03-21T16:51:07.963Z,44.80
2019-03-21T16:53:39.039Z,45.20
2019-03-21T16:56:09.733Z,45.30
2019-03-21T16:58:40.342Z,45.50
2019-03-21T17:01:11.022Z,45.50
2019-03-21T17:03:42.105Z,45.60
2019-03-21T17:06:14.055Z,45.40
2019-03-21T17:08:45.126Z,45.50
2019-03-21T17:11:16.192Z,45.30
2019-03-21T17:13:47.787Z,45.10
2019-03-21T17:16:19.254Z,45.40
2019-03-21T17:18:49.909Z,45.30
2019-03-21T17:21:20.636Z,45.60
2019-03-21T17:23:51.733Z,45.30
2019-03-21T17:26:22.696Z,45.50
2019-03-21T17:28:53.446Z,45.70
2019-03-21T17:31:25.735Z,45.70
2019-03-21T17:33:57.259Z,45.60
2019-03-21T17:36:29.585Z,45.90
2019-03-21T17:39:00.152Z,45.90
2019-03-21T17:41:31.269Z,45.70
2019-03-21T17:44:02.029Z,45.90
2019-03-21T17:46:34.203Z,45.60
2019-03-21T17:49:05.603Z,45.90
2019-03-21T17:51:36.293Z,45.60
2019-03-21T17:54:07.666Z,45.80
2019-03-21T17:56:38.808Z,45.80
2019-03-21T17:59:09.524Z,45.80
2019-03-21T18:01:40.455Z,45.80
2019-03-21T18:04:12.392Z,45.70
2019-03-21T18:06:44.108Z,46.30
2019-03-21T18:09:14.077Z,46.20
2019-03-21T18:11:45.460Z,46.30
2019-03-21T18:14:17.161Z,46.10
2019-03-21T18:16:49.493Z,46.30
2019-03-21T18:19:20.705Z,46.50
2019-03-21T18:21:51.370Z,46.60
2019-03-21T18:24:22.669Z,46.50
2019-03-21T18:26:53.233Z,46.80
2019-03-21T18:29:24.476Z,47.90
2019-03-21T18:31:55.533Z,48.30
2019-03-21T18:34:26.195Z,47.40
2019-03-21T18:36:57.282Z,48.10
2019-03-21T18:39:28.299Z,47.80
2019-03-21T18:41:59.658Z,48.50
2019-03-21T18:44:30.615Z,48.20
2019-03-21T18:47:01.604Z,47.80
2019-03-21T18:49:33.681Z,47.50
2019-03-21T18:52:06.159Z,47.60
2019-03-21T18:54:36.840Z,47.80
2019-03-21T18:57:07.405Z,47.40
2019-03-21T18:59:38.417Z,47.30
2019-03-21T19:02:09.132Z,47.70
2019-03-21T19:04:39.843Z,47.80
2019-03-21T19:07:10.754Z,47.70
2019-03-21T19:09:43.922Z,47.60
2019-03-21T19:12:14.241Z,47.90
2019-03-21T19:14:45.532Z,49.10
2019-03-21T19:17:16.139Z,48.10
2019-03-21T19:19:46.930Z,50.10
2019-03-21T19:22:17.883Z,49.70
2019-03-21T19:24:49.265Z,47.70
2019-03-21T19:27:20.606Z,45.60
2019-03-21T19:29:52.131Z,42.80
2019-03-21T19:32:23.054Z,40.00
2019-03-21T19:34:54.353Z,38.60
2019-03-21T19:37:25.724Z,37.30
2019-03-21T19:39:56.390Z,36.90
2019-03-21T19:42:27.184Z,37.50
2019-03-21T19:44:57.999Z,39.90
2019-03-21T19:47:30.488Z,41.50
2019-03-21T19:50:01.414Z,42.30
2019-03-21T19:52:32.943Z,43.30
2019-03-21T19:55:04.419Z,43.50
2019-03-21T19:57:35.338Z,42.70
2019-03-21T20:00:08.624Z,42.60
2019-03-21T20:02:40.226Z,43.00
2019-03-21T20:05:11.314Z,42.90
2019-03-21T20:07:43.482Z,43.20
2019-03-21T20:10:14.836Z,44.20
2019-03-21T20:12:45.722Z,45.00
2019-03-21T20:15:16.802Z,45.10
2019-03-21T20:17:48.130Z,44.90
2019-03-21T20:20:20.579Z,45.40
2019-03-21T20:22:52.171Z,45.60
2019-03-21T20:25:24.271Z,46.00
2019-03-21T20:27:55.464Z,45.70
2019-03-21T20:30:27.376Z,46.00
2019-03-21T20:32:58.979Z,46.30
2019-03-21T20:35:30.292Z,46.40
2019-03-21T20:38:01.802Z,46.60
2019-03-21T20:40:32.821Z,46.50
2019-03-21T20:43:04.425Z,46.40
2019-03-21T20:45:36.636Z,46.50
2019-03-21T20:48:11.097Z,47.00
2019-03-21T20:50:53.158Z,46.80
2019-03-21T20:53:26.148Z,46.70
2019-03-21T20:55:58.114Z,46.60
2019-03-21T20:58:29.378Z,46.50
2019-03-21T21:01:00.533Z,46.40
2019-03-21T21:03:32.800Z,46.60
2019-03-21T21:06:03.924Z,46.60
2019-03-21T21:08:34.672Z,46.60
2019-03-21T21:11:05.874Z,46.70
2019-03-21T21:13:37.120Z,46.80
2019-03-21T21:16:08.205Z,46.60
2019-03-21T21:18:38.865Z,46.90
2019-03-21T21:21:09.510Z,47.00
2019-03-21T21:23:40.839Z,47.10
2019-03-21T21:26:11.700Z,47.10
2019-03-21T21:28:42.703Z,47.10
2019-03-21T21:31:13.385Z,47.10
2019-03-21T21:33:44.402Z,47.40
2019-03-21T21:36:21.953Z,47.50
2019-03-21T21:38:48.547Z,47.50
2019-03-21T21:41:19.181Z,47.60
2019-03-21T21:43:49.827Z,47.80
2019-03-21T21:46:20.426Z,48.00
2019-03-21T21:48:54.536Z,48.20
2019-03-21T21:51:25.248Z,48.20
2019-03-21T21:53:56.278Z,48.30
2019-03-21T21:56:27.505Z,48.50
2019-03-21T21:58:58.210Z,48.40
2019-03-21T22:01:28.927Z,48.60
2019-03-21T22:04:04.982Z,48.80
2019-03-21T22:06:33.479Z,48.90
2019-03-21T22:09:05.356Z,49.10
2019-03-21T22:11:36.860Z,49.60
2019-03-21T22:14:07.903Z,49.70
2019-03-21T22:16:39.358Z,49.80
2019-03-21T22:19:11.325Z,49.80
2019-03-21T22:21:42.526Z,50.00
2019-03-21T22:24:13.388Z,50.10
2019-03-21T22:26:44.020Z,50.30
2019-03-21T22:29:14.894Z,50.50
2019-03-21T22:31:45.517Z,50.50
2019-03-21T22:34:18.945Z,50.50
2019-03-21T22:36:49.592Z,50.50
2019-03-21T22:39:21.432Z,50.70
2019-03-21T22:41:52.619Z,51.10
2019-03-21T22:44:23.243Z,51.30
2019-03-21T22:46:54.371Z,51.30
2019-03-21T22:49:25.074Z,51.20
2019-03-21T22:51:56.765Z,51.00
2019-03-21T22:54:26.409Z,51.10
2019-03-21T22:56:57.723Z,51.10
2019-03-21T22:59:28.676Z,51.50
2019-03-21T23:01:59.970Z,51.80
2019-03-21T23:04:32.553Z,51.80
2019-03-21T23:07:04.983Z,52.00
2019-03-21T23:09:36.341Z,52.00
2019-03-21T23:12:07.342Z,52.20
2019-03-21T23:14:38.414Z,52.30
2019-03-21T23:17:09.452Z,52.40
2019-03-21T23:19:40.460Z,52.40
2019-03-21T23:22:11.580Z,52.10
2019-03-21T23:24:42.259Z,52.20
2019-03-21T23:27:13.367Z,51.80
2019-03-21T23:29:44.855Z,51.60
2019-03-21T23:32:15.981Z,51.70
2019-03-21T23:34:46.771Z,51.80
2019-03-21T23:37:18.349Z,51.90
2019-03-21T23:39:49.585Z,51.70
2019-03-21T23:42:20.558Z,51.90
2019-03-21T23:44:51.285Z,51.90
2019-03-21T23:47:21.962Z,52.70
2019-03-21T23:49:52.433Z,52.00
2019-03-21T23:52:23.291Z,51.80
2019-03-21T23:54:54.222Z,52.30
2019-03-21T23:57:25.729Z,51.70
2019-03-21T23:59:56.878Z,51.70
